Clarksburg, WV

5:50 PM EDT on June 02, 2015 (GMT -0400)
North View | | Change Station
CLOSE
Current Station
Personal Weather Station
Location: Clarksburg, WV
Elevation: 1045 ft
Nearby Weather Stations

Elev 1045 ft 39.30 °N, 80.35 °W | Updated 24 seconds ago

Overcast
Overcast
60.9 °F
Feels Like 60.9 °F
N
0.0
Wind Variable Wind from NNW
Gusts 0.0 mph

Today
High -- | Low -- °F
--% Chance of Precip.
Yesterday
High -- | Low -- °F
Precip. -- in
5:56 AM 8:42 PM
Full, 100% visible
Pressure 30.06 in
Visibility 10.0 miles
Clouds Overcast 900 ft
Dew Point 58 °F
Humidity 91%
Rainfall 0.00 in
Snow Depth Not available.
UV 2 out of 12
Pollen 1.40 out of 12
Air Quality Not available.
Flu Activity Sporadic
METAR KCKB 022053Z 36005KT 10SM OVC009 15/13 A3008 RMK AO2 CIG 007V012 SLP180 T01500133 58013

More Conditions Fewer Conditions

Pressure 30.06 in
Visibility 10.0 miles
Clouds Overcast 900 ft
Dew Point 58 °F
Humidity 91%
Rainfall 0.00 in
Snow Depth Not available.
UV 2 out of 12
Pollen 1.40 out of 12
Air Quality Not available.
Flu Activity Sporadic
METAR KCKB 022053Z 36005KT 10SM OVC009 15/13 A3008 RMK AO2 CIG 007V012 SLP180 T01500133 58013

More Conditions Fewer Conditions

10-Day Weather Forecast

×

Almanac

Astronomy

Jun. 02, 2015 Rise Set
Actual Time
Civil Twilight
Nautical Twilight
Astronomical Twilight
Moon
Length of Visible Light
Length of Day
Tomorrow will be .
, % of the Moon is Illuminated

Today's Extremes

State Highs State Lows

Community

WunderPhotos

Upload Photos

1,826,032 photos uploaded!

WunderBlogs® & News

Nearby

Air Quality

  Air Quality AQ Index Pollutant
Not available.

Snow Depth

Station Depth Elevation

Earthquake Activity

City Distance Mag. Time & Date
Minimum magnitude displayed is 2.5.

Coastal Water Temperatures

Place Temperature

Stations

Nearby Weather Stations

Station Location Temp. Windchill Dew Point Humidity Wind Precip. Elev Updated Type